Date,TemperatureHighF,TemperatureAvgF,TemperatureLowF,DewpointHighF,DewpointAvgF,DewpointLowF,HumidityHigh,HumidityAvg,HumidityLow,PressureMaxIn,PressureMinIn,WindSpeedMaxMPH,WindSpeedAvgMPH,GustSpeedMaxMPH,PrecipitationSumIn
2013-1-1,12,7,-1,7,1,-5,92,77,70,30.27,30.16,8,3,10,0.00
2013-1-2,23,16,5,19,10,1,87,79,71,30.19,30.04,11,5,14,0.00
2013-1-3,26,20,10,24,16,6,91,85,78,30.27,30.08,15,7,18,0.00
2013-1-4,31,19,8,22,14,5,88,81,66,30.23,30.12,19,9,23,0.00
2013-1-5,34,26,16,32,24,11,93,89,81,30.18,29.89,22,10,25,0.20
2013-1-6,31,19,11,27,15,8,88,84,78,30.29,29.89,20,9,25,0.00
2013-1-7,36,24,12,27,19,8,88,81,67,30.27,30.03,23,12,28,0.01
2013-1-8,37,30,18,32,26,17,100,86,78,30.07,29.93,23,10,26,0.00
2013-1-9,39,32,22,32,26,19,87,79,62,30.44,29.94,22,8,28,0.00
2013-1-10,37,29,18,34,26,15,96,89,76,30.44,29.78,23,8,27,0.32
2013-1-11,45,39,34,43,38,34,100,97,90,29.78,29.56,19,9,24,0.04
2013-1-12,48,32,20,44,27,17,91,82,74,30.00,29.57,19,12,37,0.00
2013-1-13,20,15,10,18,10,5,90,78,71,30.25,29.89,17,11,24,0.00
2013-1-14,25,14,6,13,8,2,89,76,54,30.45,30.25,12,5,15,0.00
2013-1-15,28,18,9,17,12,6,87,77,59,30.41,30.09,14,5,15,0.00
2013-1-16,34,26,14,32,21,9,93,79,68,30.09,29.80,21,10,26,0.00
2013-1-17,32,23,16,28,14,8,86,72,55,30.37,30.06,19,8,22,0.00
2013-1-18,43,33,19,34,26,15,87,77,68,30.39,29.83,34,16,40,0.00
2013-1-19,47,36,16,35,28,8,83,75,59,30.00,29.67,41,17,47,0.00
2013-1-20,16,11,7,6,3,0,79,68,57,30.31,30.00,32,12,37,0.00
2013-1-21,10,4,0,5,-5,-8,80,67,55,30.30,30.17,26,15,33,0.00
2013-1-22,10,4,-5,-1,-5,-11,77,66,54,30.41,30.33,13,6,18,0.00
2013-1-23,21,13,6,15,7,-2,86,74,63,30.43,30.11,21,9,28,0.00
2013-1-24,19,10,1,9,0,-6,72,66,53,30.65,30.32,15,6,17,0.00
2013-1-25,31,21,14,19,12,7,87,71,55,30.29,29.93,26,12,31,0.00
2013-1-26,26,18,6,16,9,2,83,69,51,30.38,30.21,14,6,16,0.00
2013-1-27,35,29,24,34,24,14,100,83,66,30.31,29.79,18,12,23,0.08
2013-1-28,41,38,34,40,36,33,97,94,85,29.90,29.67,17,7,19,0.37
2013-1-29,57,44,34,55,43,33,98,96,92,29.66,29.40,18,7,36,0.74
2013-1-30,34,26,15,33,25,10,96,92,80,29.65,29.28,32,14,34,0.14
2013-1-31,15,7,-2,12,2,-7,87,80,75,30.22,29.66,24,14,29,0.00